Time;durP1;ratioP1;P1;durP2;ratioP2;P2;SDS_P1;SDS_P2;PMS_P1;PMS_P2;Temp;Humidity;BMP_temperature;BMP_pressure;BME280_temperature;BME280_humidity;BME280_pressure;Samples;Min_cycle;Max_cycle;Signal;HPM_P1;HPM_P2
2021/09/25 00:00:05;;;;;;;2.33;1.60;;;23.60;51.60;;;;;;5024005;28;20041;-61
2021/09/25 00:02:31;;;;;;;2.20;1.50;;;23.60;51.60;;;;;;5022380;28;20171;-62
2021/09/25 00:04:57;;;;;;;2.42;1.90;;;23.60;51.60;;;;;;5022393;28;20112;-62
2021/09/25 00:07:22;;;;;;;2.58;1.83;;;23.60;51.60;;;;;;5026545;28;20041;-62
2021/09/25 00:09:48;;;;;;;2.63;2.00;;;23.50;51.60;;;;;;5022339;28;20057;-61
2021/09/25 00:12:17;;;;;;;2.30;1.50;;;23.50;51.60;;;;;;5026189;28;20072;-61
2021/09/25 00:14:43;;;;;;;2.40;1.35;;;23.50;51.60;;;;;;5024640;28;20057;-62
2021/09/25 00:17:11;;;;;;;2.65;1.70;;;23.50;51.60;;;;;;5031214;28;20061;-61
2021/09/25 00:19:38;;;;;;;2.30;1.60;;;23.50;51.60;;;;;;5022305;28;20029;-61
2021/09/25 00:22:05;;;;;;;2.08;1.40;;;23.50;51.60;;;;;;5025241;28;20057;-62
2021/09/25 00:24:31;;;;;;;2.20;1.50;;;23.50;51.60;;;;;;5022973;28;20116;-60
2021/09/25 00:26:56;;;;;;;2.22;1.58;;;23.50;51.70;;;;;;5026344;28;20112;-61
2021/09/25 00:29:22;;;;;;;2.42;1.67;;;23.50;51.60;;;;;;5017717;28;20033;-61
2021/09/25 00:31:48;;;;;;;1.95;1.40;;;23.50;51.60;;;;;;5036061;28;20457;-62
2021/09/25 00:34:14;;;;;;;2.10;1.55;;;23.50;51.60;;;;;;5016394;28;20112;-61
2021/09/25 00:36:39;;;;;;;2.40;1.52;;;23.40;51.60;;;;;;5018178;28;20465;-61
2021/09/25 00:39:06;;;;;;;2.30;1.60;;;23.50;51.70;;;;;;5019393;28;20496;-61
2021/09/25 00:41:31;;;;;;;2.05;1.50;;;23.40;51.60;;;;;;5027545;28;20033;-62
2021/09/25 00:43:57;;;;;;;2.50;1.60;;;23.40;51.70;;;;;;5021783;28;20087;-59
2021/09/25 00:46:23;;;;;;;2.40;1.60;;;23.40;51.70;;;;;;5024191;28;20435;-61
2021/09/25 00:48:49;;;;;;;1.70;1.30;;;23.40;51.60;;;;;;5022809;28;20058;-61
2021/09/25 00:51:15;;;;;;;1.90;1.50;;;23.40;52.20;;;;;;5020621;28;20183;-62
2021/09/25 00:53:42;;;;;;;2.50;1.70;;;23.40;51.70;;;;;;5018375;28;20018;-62
2021/09/25 00:56:09;;;;;;;2.28;1.60;;;23.40;51.70;;;;;;5027081;28;20401;-62
2021/09/25 00:58:37;;;;;;;1.73;1.27;;;23.30;51.60;;;;;;5023866;28;20025;-61
2021/09/25 01:01:03;;;;;;;2.30;1.40;;;23.40;51.70;;;;;;5024170;28;20599;-61
2021/09/25 01:03:29;;;;;;;2.38;1.60;;;23.40;51.70;;;;;;5025213;28;20773;-63
2021/09/25 01:05:54;;;;;;;2.17;1.40;;;23.40;51.70;;;;;;5015370;28;20042;-62
2021/09/25 01:08:23;;;;;;;1.83;1.38;;;23.30;51.70;;;;;;5023794;28;20551;-62
2021/09/25 01:10:54;;;;;;;1.92;1.40;;;23.30;51.70;;;;;;5021827;28;20053;-61
2021/09/25 01:13:21;;;;;;;2.13;1.48;;;23.30;51.70;;;;;;5029365;28;20030;-62
2021/09/25 01:15:47;;;;;;;1.90;1.50;;;23.30;51.70;;;;;;5032364;28;20036;-62
2021/09/25 01:18:13;;;;;;;2.20;1.38;;;23.30;51.70;;;;;;5033158;28;20022;-61
2021/09/25 01:20:39;;;;;;;1.65;1.30;;;23.30;51.70;;;;;;5018578;28;20034;-60
2021/09/25 01:23:05;;;;;;;1.88;1.20;;;23.30;51.70;;;;;;5030379;28;20048;-60
2021/09/25 01:25:32;;;;;;;1.83;1.30;;;23.30;51.70;;;;;;5022937;28;20040;-62
2021/09/25 01:27:58;;;;;;;2.03;1.48;;;23.30;51.70;;;;;;5021759;28;20065;-60
2021/09/25 01:30:24;;;;;;;2.13;1.55;;;23.30;51.70;;;;;;5022467;28;20022;-61
2021/09/25 01:32:51;;;;;;;2.33;1.20;;;23.30;51.70;;;;;;5024449;28;20067;-60
2021/09/25 01:35:19;;;;;;;2.10;1.50;;;23.20;51.70;;;;;;5014239;28;20505;-62
2021/09/25 01:37:47;;;;;;;1.85;1.30;;;23.30;51.70;;;;;;5020397;28;20470;-62
2021/09/25 01:40:14;;;;;;;1.83;1.38;;;23.20;51.70;;;;;;5027045;28;20033;-61
2021/09/25 01:42:39;;;;;;;1.92;1.33;;;23.30;51.80;;;;;;5026758;28;20021;-59
2021/09/25 01:45:05;;;;;;;2.05;1.60;;;23.20;51.70;;;;;;5021453;28;20032;-62
2021/09/25 01:47:31;;;;;;;1.88;1.30;;;23.20;51.70;;;;;;5028268;28;20050;-61
2021/09/25 01:50:00;;;;;;;2.08;1.50;;;23.20;51.70;;;;;;5019885;28;20501;-60
2021/09/25 01:52:27;;;;;;;1.95;1.50;;;23.20;51.70;;;;;;5021839;28;20025;-60
2021/09/25 01:54:53;;;;;;;2.67;1.55;;;23.20;51.70;;;;;;5031908;28;20495;-61
2021/09/25 01:57:18;;;;;;;2.05;1.45;;;23.20;51.70;;;;;;5021280;28;20045;-63
2021/09/25 01:59:44;;;;;;;2.63;1.50;;;23.20;51.80;;;;;;5026461;28;20034;-62
2021/09/25 02:02:11;;;;;;;2.10;1.40;;;23.20;51.70;;;;;;5021251;28;20065;-62
2021/09/25 02:04:37;;;;;;;2.10;1.40;;;23.20;51.70;;;;;;5032874;28;20830;-62
2021/09/25 02:07:04;;;;;;;2.03;1.40;;;23.20;51.80;;;;;;5019992;28;20029;-62
2021/09/25 02:09:29;;;;;;;2.42;1.50;;;23.20;51.80;;;;;;5020863;28;20056;-61
2021/09/25 02:11:55;;;;;;;2.20;1.27;;;23.20;51.80;;;;;;5025204;28;20025;-60
2021/09/25 02:14:21;;;;;;;2.03;1.30;;;23.10;51.70;;;;;;5011429;28;20066;-61
2021/09/25 02:16:46;;;;;;;1.75;1.33;;;23.20;51.80;;;;;;5017804;28;20025;-59
2021/09/25 02:19:12;;;;;;;1.83;1.40;;;23.10;51.70;;;;;;5021587;28;20112;-61
2021/09/25 02:21:38;;;;;;;1.77;1.30;;;23.10;52.20;;;;;;5031161;28;20026;-60
2021/09/25 02:24:04;;;;;;;2.08;1.40;;;23.10;51.80;;;;;;5027606;28;20064;-61
2021/09/25 02:26:29;;;;;;;2.00;1.40;;;23.10;51.70;;;;;;5018817;28;20022;-60
2021/09/25 02:28:55;;;;;;;2.03;1.40;;;23.10;51.70;;;;;;5010954;28;20029;-61
2021/09/25 02:31:21;;;;;;;2.10;1.45;;;23.10;51.80;;;;;;5033843;28;20132;-60
2021/09/25 02:33:47;;;;;;;2.28;1.38;;;23.10;51.70;;;;;;5028651;28;20025;-59
2021/09/25 02:36:13;;;;;;;2.22;1.60;;;23.10;51.70;;;;;;5027556;28;20144;-61
2021/09/25 02:38:39;;;;;;;1.60;1.20;;;23.10;51.80;;;;;;5025561;28;20096;-61
2021/09/25 02:41:05;;;;;;;2.05;1.40;;;23.10;51.70;;;;;;5029947;28;20125;-60
2021/09/25 02:43:30;;;;;;;1.95;1.40;;;23.10;51.70;;;;;;5028459;28;20037;-60
2021/09/25 02:45:57;;;;;;;2.00;1.40;;;23.10;51.70;;;;;;5024419;28;20041;-59
2021/09/25 02:48:22;;;;;;;2.08;1.40;;;23.10;51.70;;;;;;5034878;28;20092;-61
2021/09/25 02:50:48;;;;;;;2.20;1.50;;;23.00;51.70;;;;;;5034246;28;20084;-60
2021/09/25 02:53:14;;;;;;;2.10;1.40;;;23.10;51.80;;;;;;5028843;28;20033;-61
2021/09/25 02:55:40;;;;;;;1.88;1.35;;;23.00;51.70;;;;;;5020275;28;20030;-59
2021/09/25 02:58:05;;;;;;;2.40;1.60;;;23.00;51.70;;;;;;5027237;28;20116;-58
2021/09/25 03:00:31;;;;;;;1.90;1.50;;;23.00;51.70;;;;;;5030107;28;20064;-60
2021/09/25 03:02:56;;;;;;;2.45;1.50;;;23.00;51.70;;;;;;5021527;28;20406;-61
2021/09/25 03:05:22;;;;;;;2.10;1.50;;;23.00;51.70;;;;;;5027612;28;20047;-60
2021/09/25 03:07:48;;;;;;;1.90;1.17;;;23.00;51.70;;;;;;5018999;28;20408;-60
2021/09/25 03:10:14;;;;;;;2.08;1.40;;;23.00;51.70;;;;;;5027265;28;20128;-61
2021/09/25 03:12:40;;;;;;;1.90;1.40;;;23.00;51.80;;;;;;5025539;28;20053;-62
2021/09/25 03:15:06;;;;;;;2.20;1.50;;;23.00;51.70;;;;;;5027547;28;20492;-60
2021/09/25 03:17:33;;;;;;;2.03;1.50;;;23.00;51.70;;;;;;5021432;28;20358;-63
2021/09/25 03:19:58;;;;;;;1.75;1.40;;;23.00;51.80;;;;;;5028740;28;20060;-62
2021/09/25 03:22:24;;;;;;;1.65;1.30;;;23.00;51.80;;;;;;5027631;28;20094;-62
2021/09/25 03:24:50;;;;;;;1.95;1.40;;;23.00;51.80;;;;;;5027614;28;20061;-62
2021/09/25 03:27:15;;;;;;;1.90;1.40;;;23.00;51.80;;;;;;5018917;28;20123;-62
2021/09/25 03:29:41;;;;;;;2.05;1.50;;;23.00;52.30;;;;;;5016707;28;20113;-62
2021/09/25 03:32:07;;;;;;;1.92;1.27;;;23.00;51.80;;;;;;5027779;28;20133;-59
2021/09/25 03:34:34;;;;;;;1.85;1.40;;;22.90;51.70;;;;;;5025648;28;20428;-60
2021/09/25 03:36:59;;;;;;;1.70;1.40;;;22.90;51.70;;;;;;5016580;28;20151;-59
2021/09/25 03:39:25;;;;;;;1.95;1.35;;;22.90;51.70;;;;;;5026098;28;20063;-60
2021/09/25 03:41:51;;;;;;;1.80;1.40;;;22.90;51.70;;;;;;5028905;28;20746;-60
2021/09/25 03:44:16;;;;;;;2.05;1.35;;;22.90;51.70;;;;;;5024601;28;20038;-62
2021/09/25 03:46:42;;;;;;;2.03;1.33;;;22.90;51.80;;;;;;5043042;28;20033;-62
2021/09/25 03:49:09;;;;;;;1.98;1.40;;;22.90;51.80;;;;;;5028155;28;20945;-61
2021/09/25 03:51:34;;;;;;;1.65;1.20;;;22.90;51.80;;;;;;5033854;28;20033;-61
2021/09/25 03:54:00;;;;;;;1.67;1.30;;;22.90;51.80;;;;;;5029068;28;20674;-60
2021/09/25 03:56:26;;;;;;;2.03;1.48;;;22.90;51.80;;;;;;5024016;28;20033;-61
2021/09/25 03:58:51;;;;;;;1.73;1.25;;;22.90;51.80;;;;;;5023684;28;20108;-61
2021/09/25 04:01:17;;;;;;;2.10;1.42;;;22.90;51.80;;;;;;5017950;28;20057;-61
2021/09/25 04:03:44;;;;;;;2.15;1.45;;;22.80;51.70;;;;;;5017247;28;20030;-61
2021/09/25 04:06:10;;;;;;;2.00;1.38;;;22.80;51.70;;;;;;5023412;28;20037;-61
2021/09/25 04:08:36;;;;;;;1.75;1.33;;;22.90;51.80;;;;;;5022332;28;20091;-59
2021/09/25 04:11:02;;;;;;;1.42;1.20;;;22.80;51.70;;;;;;5024086;28;20038;-59
2021/09/25 04:13:27;;;;;;;2.20;1.50;;;22.80;51.70;;;;;;5019782;28;20021;-61
2021/09/25 04:15:53;;;;;;;2.00;1.30;;;22.80;52.30;;;;;;5025889;28;20056;-61
2021/09/25 04:18:19;;;;;;;1.90;1.38;;;22.80;51.70;;;;;;5037443;28;20510;-61
2021/09/25 04:20:44;;;;;;;1.98;1.42;;;22.80;51.80;;;;;;5039495;28;20025;-60
2021/09/25 04:23:10;;;;;;;1.83;1.30;;;22.80;51.80;;;;;;5024125;28;20439;-61
2021/09/25 04:25:36;;;;;;;1.77;1.40;;;22.80;51.80;;;;;;5015486;28;20329;-61
2021/09/25 04:28:05;;;;;;;2.17;1.40;;;22.80;51.80;;;;;;5026619;28;20061;-60
2021/09/25 04:30:40;;;;;;;2.08;1.50;;;22.80;51.80;;;;;;5013579;28;20034;-58
2021/09/25 04:33:09;;;;;;;1.60;1.20;;;22.80;51.90;;;;;;5024644;28;20112;-60
2021/09/25 04:35:36;;;;;;;1.90;1.40;;;22.80;51.80;;;;;;5020848;28;20034;-59
2021/09/25 04:38:02;;;;;;;2.03;1.27;;;22.80;51.90;;;;;;5024966;28;20038;-61
2021/09/25 04:40:31;;;;;;;1.80;1.35;;;22.80;51.90;;;;;;5026188;28;20022;-60
2021/09/25 04:42:59;;;;;;;2.00;1.30;;;22.70;51.90;;;;;;5026020;28;20095;-62
2021/09/25 04:45:26;;;;;;;1.95;1.38;;;22.70;51.80;;;;;;5026814;28;20553;-59
2021/09/25 04:47:52;;;;;;;1.83;1.23;;;22.70;51.80;;;;;;5022365;28;20045;-61
2021/09/25 04:50:18;;;;;;;1.65;1.30;;;22.70;51.80;;;;;;5034711;28;20349;-60
2021/09/25 04:52:44;;;;;;;1.98;1.42;;;22.70;52.40;;;;;;5025098;28;20478;-60
2021/09/25 04:55:10;;;;;;;1.42;1.20;;;22.70;51.90;;;;;;5023447;28;20144;-60
2021/09/25 04:57:36;;;;;;;1.70;1.40;;;22.70;51.90;;;;;;5028691;28;20079;-60
2021/09/25 05:00:03;;;;;;;1.80;1.30;;;22.70;51.90;;;;;;5025574;28;20453;-60
2021/09/25 05:02:28;;;;;;;2.00;1.30;;;22.70;51.90;;;;;;5013121;28;21626;-60
2021/09/25 05:04:54;;;;;;;2.25;1.38;;;22.70;51.90;;;;;;5018149;28;20040;-59
2021/09/25 05:07:19;;;;;;;1.73;1.30;;;22.70;52.00;;;;;;5038238;28;20500;-59
2021/09/25 05:09:45;;;;;;;2.28;1.30;;;22.70;52.00;;;;;;5018977;28;20092;-59
2021/09/25 05:12:11;;;;;;;1.80;1.30;;;22.70;52.00;;;;;;5016276;28;20083;-59
2021/09/25 05:14:38;;;;;;;1.58;1.30;;;22.70;52.00;;;;;;5022014;28;20041;-60
2021/09/25 05:17:04;;;;;;;2.10;1.50;;;22.60;51.90;;;;;;5018292;28;20026;-59
2021/09/25 05:19:29;;;;;;;1.85;1.35;;;22.70;51.90;;;;;;5025841;28;20564;-60
2021/09/25 05:21:55;;;;;;;1.38;1.17;;;22.60;51.90;;;;;;5026402;28;20560;-59
2021/09/25 05:24:21;;;;;;;2.03;1.15;;;22.60;51.90;;;;;;5020903;28;20445;-60
2021/09/25 05:26:48;;;;;;;1.67;1.10;;;22.70;52.00;;;;;;5027306;28;20033;-60
2021/09/25 05:29:13;;;;;;;2.10;1.42;;;22.60;51.90;;;;;;5010744;28;20026;-61
2021/09/25 05:31:39;;;;;;;2.20;1.63;;;22.60;51.90;;;;;;5048121;28;20056;-60
2021/09/25 05:34:04;;;;;;;1.90;1.30;;;22.60;51.90;;;;;;5020479;28;20383;-60
2021/09/25 05:36:30;;;;;;;1.88;1.35;;;22.60;51.90;;;;;;5023093;28;20037;-59
2021/09/25 05:38:56;;;;;;;2.85;1.50;;;22.60;51.90;;;;;;5030482;28;20026;-60
2021/09/25 05:41:22;;;;;;;1.88;1.42;;;22.60;51.90;;;;;;5025837;28;20037;-60
2021/09/25 05:43:51;;;;;;;1.77;1.30;;;22.60;51.90;;;;;;5026714;28;20095;-59
2021/09/25 05:46:17;;;;;;;2.25;1.33;;;22.60;51.90;;;;;;5025256;28;20026;-60
2021/09/25 05:48:43;;;;;;;1.80;1.30;;;22.60;52.00;;;;;;5021901;28;20037;-59
2021/09/25 05:51:11;;;;;;;1.58;1.13;;;22.60;51.90;;;;;;5019142;28;20456;-60
2021/09/25 05:53:36;;;;;;;1.73;1.38;;;22.60;51.90;;;;;;5021015;28;20496;-60
2021/09/25 05:56:02;;;;;;;2.10;1.40;;;22.60;52.00;;;;;;5019800;28;20068;-61
2021/09/25 05:58:28;;;;;;;1.77;1.30;;;22.60;52.00;;;;;;5024522;28;20034;-61
2021/09/25 06:00:54;;;;;;;2.05;1.30;;;22.50;51.90;;;;;;5020290;28;20038;-61
2021/09/25 06:03:19;;;;;;;1.75;1.20;;;22.50;51.90;;;;;;5018296;28;20164;-59
2021/09/25 06:05:45;;;;;;;1.65;1.17;;;22.50;51.90;;;;;;5016184;28;20072;-61
2021/09/25 06:08:11;;;;;;;2.00;1.40;;;22.50;51.90;;;;;;5018493;28;20368;-61
2021/09/25 06:10:37;;;;;;;2.00;1.30;;;22.60;52.50;;;;;;5026262;28;20132;-59
2021/09/25 06:13:04;;;;;;;1.88;1.30;;;22.50;51.90;;;;;;5026527;28;20013;-60
2021/09/25 06:15:29;;;;;;;2.53;1.50;;;22.50;51.90;;;;;;5040347;28;20032;-61
2021/09/25 06:17:55;;;;;;;2.92;1.40;;;22.50;51.90;;;;;;5020080;28;20045;-59
2021/09/25 06:20:21;;;;;;;1.30;1.10;;;22.50;51.90;;;;;;5022823;28;20072;-63
2021/09/25 06:22:46;;;;;;;2.25;1.38;;;22.50;51.90;;;;;;5022670;28;20096;-61
2021/09/25 06:25:12;;;;;;;2.67;1.40;;;22.50;51.90;;;;;;5023215;28;20029;-60
2021/09/25 06:27:38;;;;;;;1.90;1.40;;;22.50;51.90;;;;;;5028322;28;20173;-60
2021/09/25 06:30:06;;;;;;;1.70;1.30;;;22.40;51.90;;;;;;5022065;28;20317;-61
2021/09/25 06:32:31;;;;;;;1.95;1.20;;;22.50;52.00;;;;;;5020154;28;20038;-61
2021/09/25 06:34:57;;;;;;;1.73;1.30;;;22.50;51.90;;;;;;5017955;28;20028;-61
2021/09/25 06:37:22;;;;;;;2.15;1.40;;;22.50;51.90;;;;;;5017619;28;20034;-59
2021/09/25 06:39:48;;;;;;;2.90;1.42;;;22.50;51.80;;;;;;5021826;28;20047;-60
2021/09/25 06:42:14;;;;;;;1.85;1.33;;;22.40;51.80;;;;;;5023939;28;20930;-62
2021/09/25 06:44:39;;;;;;;2.30;1.30;;;22.40;51.80;;;;;;5022283;28;20228;-62
2021/09/25 06:47:05;;;;;;;2.25;1.40;;;22.40;51.80;;;;;;5023825;28;20034;-61
2021/09/25 06:49:31;;;;;;;1.95;1.35;;;22.40;51.80;;;;;;5019165;28;20037;-60
2021/09/25 06:51:56;;;;;;;1.88;1.38;;;22.40;51.80;;;;;;5025097;28;20044;-61
2021/09/25 06:54:22;;;;;;;2.30;1.40;;;22.40;51.70;;;;;;5021898;28;20026;-62
2021/09/25 06:56:47;;;;;;;2.17;1.48;;;22.40;51.70;;;;;;5015762;28;20072;-61
2021/09/25 06:59:13;;;;;;;2.10;1.42;;;22.40;51.70;;;;;;5018209;28;20014;-61
2021/09/25 07:01:38;;;;;;;2.00;1.40;;;22.40;51.70;;;;;;5018891;28;20136;-61
2021/09/25 07:04:04;;;;;;;2.05;1.48;;;22.40;51.70;;;;;;5026369;28;20349;-61
2021/09/25 07:06:31;;;;;;;2.72;1.40;;;22.40;51.70;;;;;;5012460;28;20107;-62
2021/09/25 07:08:56;;;;;;;2.35;1.42;;;22.40;51.60;;;;;;5018831;28;20041;-61
2021/09/25 07:11:22;;;;;;;2.80;1.50;;;22.40;51.60;;;;;;5019497;28;20025;-61
2021/09/25 07:13:48;;;;;;;2.10;1.30;;;22.40;51.60;;;;;;5022758;28;20029;-61
2021/09/25 07:16:13;;;;;;;2.20;1.50;;;22.40;51.50;;;;;;5018454;28;20456;-61
2021/09/25 07:18:39;;;;;;;1.80;1.40;;;22.40;51.50;;;;;;5011338;28;20022;-63
2021/09/25 07:21:06;;;;;;;1.63;1.25;;;22.40;51.50;;;;;;5017219;28;20060;-62
2021/09/25 07:23:32;;;;;;;2.10;1.38;;;22.40;51.50;;;;;;5021713;28;20392;-61
2021/09/25 07:25:58;;;;;;;2.30;1.40;;;22.40;51.50;;;;;;5013010;28;20038;-60
2021/09/25 07:28:24;;;;;;;2.80;1.50;;;22.40;51.90;;;;;;5017828;28;20063;-60
2021/09/25 07:30:50;;;;;;;3.65;1.70;;;22.40;52.10;;;;;;5010715;28;20457;-60
2021/09/25 07:33:19;;;;;;;2.30;1.40;;;22.40;52.20;;;;;;5019304;28;20022;-61
2021/09/25 07:35:46;;;;;;;2.65;1.50;;;22.40;52.10;;;;;;5024470;28;20044;-61
2021/09/25 07:38:12;;;;;;;2.08;1.27;;;22.40;51.90;;;;;;5034884;28;20052;-58
2021/09/25 07:40:37;;;;;;;2.83;1.42;;;22.40;51.80;;;;;;5021251;28;20041;-57
2021/09/25 07:43:04;;;;;;;2.65;1.63;;;22.40;51.70;;;;;;5019953;28;20039;-59
2021/09/25 07:45:30;;;;;;;2.50;1.40;;;22.40;51.70;;;;;;5012930;28;20144;-60
2021/09/25 07:47:57;;;;;;;2.10;1.30;;;22.40;51.70;;;;;;5027455;28;20141;-60
2021/09/25 07:50:23;;;;;;;2.83;1.58;;;22.40;51.70;;;;;;5007791;28;20034;-59
2021/09/25 07:52:49;;;;;;;3.28;1.40;;;22.40;51.80;;;;;;5013236;28;20033;-60
2021/09/25 07:55:15;;;;;;;2.30;1.55;;;22.40;51.70;;;;;;5020417;28;20044;-60
2021/09/25 07:57:41;;;;;;;3.35;1.60;;;22.40;51.70;;;;;;5019958;28;20104;-61
2021/09/25 08:00:10;;;;;;;2.42;1.50;;;22.40;51.70;;;;;;5019326;28;20091;-61
2021/09/25 08:02:35;;;;;;;2.45;1.60;;;22.40;51.70;;;;;;5023075;28;20045;-61
2021/09/25 08:05:01;;;;;;;2.38;1.70;;;22.40;51.70;;;;;;5020624;28;20026;-61
2021/09/25 08:07:27;;;;;;;2.80;1.50;;;22.40;51.60;;;;;;5016591;28;20104;-60
2021/09/25 08:09:53;;;;;;;2.90;1.70;;;22.40;51.60;;;;;;5020578;28;20099;-60
2021/09/25 08:12:18;;;;;;;2.30;1.55;;;22.40;51.60;;;;;;5021387;28;20140;-59
2021/09/25 08:14:44;;;;;;;2.38;1.55;;;22.40;51.60;;;;;;5022821;28;20380;-60
2021/09/25 08:17:10;;;;;;;3.53;1.70;;;22.40;51.60;;;;;;5027808;28;20033;-57
2021/09/25 08:19:35;;;;;;;3.00;1.60;;;22.40;51.60;;;;;;5026447;28;20152;-62
2021/09/25 08:22:01;;;;;;;2.63;1.55;;;22.40;51.60;;;;;;5024431;28;20044;-58
2021/09/25 08:24:27;;;;;;;3.28;1.73;;;22.40;51.50;;;;;;5025777;28;20716;-61
2021/09/25 08:26:52;;;;;;;2.20;1.35;;;22.40;51.50;;;;;;5027871;28;20448;-61
2021/09/25 08:29:18;;;;;;;3.03;1.85;;;22.40;51.50;;;;;;5013176;28;20038;-56
2021/09/25 08:31:43;;;;;;;2.67;1.50;;;22.40;51.50;;;;;;5021610;28;20400;-60
2021/09/25 08:34:09;;;;;;;2.10;1.50;;;22.40;51.50;;;;;;5023253;28;20028;-58
2021/09/25 08:36:35;;;;;;;2.65;1.75;;;22.40;51.50;;;;;;5017718;28;20030;-57
2021/09/25 08:39:00;;;;;;;2.53;1.65;;;22.40;51.50;;;;;;5017309;28;20035;-60
2021/09/25 08:41:26;;;;;;;3.25;1.63;;;22.40;51.50;;;;;;5013537;28;20032;-58
2021/09/25 08:43:52;;;;;;;2.47;1.50;;;22.40;51.50;;;;;;5018592;28;20103;-63
2021/09/25 08:46:18;;;;;;;2.33;1.70;;;22.40;51.40;;;;;;5010774;28;20132;-58
2021/09/25 08:48:44;;;;;;;3.08;1.77;;;22.40;51.40;;;;;;5033474;28;20042;-64
2021/09/25 08:51:11;;;;;;;2.63;1.75;;;22.40;51.40;;;;;;5021368;28;20098;-58
2021/09/25 08:53:36;;;;;;;3.00;1.67;;;22.50;51.40;;;;;;5023535;28;20041;-57
2021/09/25 08:56:03;;;;;;;3.03;1.90;;;22.40;51.40;;;;;;5017487;28;20041;-59
2021/09/25 08:58:29;;;;;;;2.92;1.80;;;22.50;51.40;;;;;;5020300;28;20074;-60
2021/09/25 09:00:55;;;;;;;2.47;1.48;;;22.40;51.30;;;;;;5015039;28;20078;-64
2021/09/25 09:03:34;;;;;;;2.58;1.80;;;22.50;51.40;;;;;;5021593;28;20033;-59
2021/09/25 09:06:06;;;;;;;3.97;1.90;;;22.50;51.40;;;;;;5015700;28;20036;-65
2021/09/25 09:08:32;;;;;;;3.88;1.88;;;22.40;51.30;;;;;;5015820;28;20042;-60
2021/09/25 09:10:57;;;;;;;2.40;1.65;;;22.40;51.30;;;;;;5024796;28;20025;-56
2021/09/25 09:13:25;;;;;;;4.03;1.80;;;22.50;51.40;;;;;;5021881;28;20051;-59
2021/09/25 09:15:52;;;;;;;2.58;1.60;;;22.50;51.30;;;;;;5016566;28;20028;-57
2021/09/25 09:18:20;;;;;;;2.50;1.70;;;22.50;51.30;;;;;;5020466;28;20029;-64
2021/09/25 09:21:10;;;;;;;3.38;1.90;;;22.50;51.30;;;;;;5019216;28;20056;-61
2021/09/25 09:23:39;;;;;;;3.15;1.77;;;22.50;51.30;;;;;;5032425;28;20116;-63
2021/09/25 09:26:06;;;;;;;3.60;1.80;;;22.40;51.30;;;;;;5018298;28;22297;-55
2021/09/25 09:28:34;;;;;;;2.50;1.70;;;22.50;51.30;;;;;;5026447;28;20021;-57
2021/09/25 09:31:01;;;;;;;2.58;1.80;;;22.40;51.20;;;;;;5018816;28;20123;-65
2021/09/25 09:33:43;;;;;;;2.80;1.80;;;22.50;51.30;;;;;;5020238;28;20056;-61
2021/09/25 09:36:25;;;;;;;2.60;1.80;;;22.50;51.30;;;;;;5022962;28;20032;-60
2021/09/25 09:39:02;;;;;;;2.42;1.90;;;22.50;51.30;;;;;;5028805;28;20063;-61
2021/09/25 09:41:30;;;;;;;2.72;1.70;;;22.50;51.30;;;;;;5026652;28;20029;-57
2021/09/25 09:43:59;;;;;;;3.25;1.67;;;22.50;51.30;;;;;;5023969;28;20033;-61
2021/09/25 09:46:33;;;;;;;3.33;1.80;;;22.50;51.30;;;;;;5021302;28;20357;-60
2021/09/25 09:48:59;;;;;;;2.90;1.80;;;22.50;51.30;;;;;;5020436;28;20029;-56
2021/09/25 09:51:34;;;;;;;2.55;1.80;;;22.50;51.30;;;;;;5023157;28;20401;-61
2021/09/25 09:54:00;;;;;;;2.60;1.77;;;22.50;51.30;;;;;;5025147;28;20045;-64
2021/09/25 09:56:26;;;;;;;3.10;1.90;;;22.50;51.30;;;;;;5024849;28;20026;-57
2021/09/25 09:59:00;;;;;;;2.53;1.90;;;22.50;51.30;;;;;;5019747;28;20125;-60
2021/09/25 10:01:27;;;;;;;2.65;1.90;;;22.50;51.30;;;;;;5022464;28;20041;-55
2021/09/25 10:03:53;;;;;;;3.03;2.00;;;22.50;51.30;;;;;;5024641;28;20407;-60
2021/09/25 10:06:19;;;;;;;2.92;2.08;;;22.50;51.30;;;;;;5024504;28;20033;-65
2021/09/25 10:08:45;;;;;;;3.40;2.05;;;22.50;51.30;;;;;;5017685;28;20113;-61
2021/09/25 10:11:11;;;;;;;3.65;2.05;;;22.50;51.30;;;;;;5023012;28;20026;-59
2021/09/25 10:13:41;;;;;;;3.72;2.10;;;22.50;51.30;;;;;;5020126;28;20039;-60
2021/09/25 10:16:08;;;;;;;3.22;2.03;;;22.50;51.40;;;;;;5017596;28;20406;-54
2021/09/25 10:18:35;;;;;;;2.88;2.05;;;22.50;51.30;;;;;;5016125;28;20025;-57
2021/09/25 10:21:06;;;;;;;3.72;2.08;;;22.50;51.40;;;;;;5022442;28;20037;-57
2021/09/25 10:23:34;;;;;;;3.75;2.00;;;22.50;51.40;;;;;;5026129;28;20025;-54
2021/09/25 10:26:01;;;;;;;2.90;2.10;;;22.50;51.40;;;;;;5025213;28;20361;-62
2021/09/25 10:28:29;;;;;;;3.28;2.17;;;22.60;51.50;;;;;;5028608;28;20084;-62
2021/09/25 10:30:56;;;;;;;2.90;1.80;;;22.60;51.50;;;;;;5015879;28;20493;-59
2021/09/25 10:33:24;;;;;;;3.72;1.90;;;22.50;51.50;;;;;;5029660;28;20036;-64
2021/09/25 10:35:51;;;;;;;3.70;2.10;;;22.60;51.60;;;;;;5021083;28;20444;-65
2021/09/25 10:38:37;;;;;;;3.00;1.98;;;22.60;51.60;;;;;;5031359;28;20468;-58
2021/09/25 10:41:17;;;;;;;3.97;2.15;;;22.60;51.60;;;;;;5024589;28;20101;-64
2021/09/25 10:43:45;;;;;;;3.05;1.90;;;22.60;51.60;;;;;;5027028;28;20021;-64
2021/09/25 10:46:12;;;;;;;2.80;2.00;;;22.60;51.60;;;;;;5027448;28;20397;-61
2021/09/25 10:48:49;;;;;;;3.17;1.98;;;22.60;51.60;;;;;;5024737;28;20029;-62
2021/09/25 10:51:18;;;;;;;3.00;1.90;;;22.60;51.60;;;;;;5020386;28;20025;-55
2021/09/25 10:53:47;;;;;;;3.13;1.90;;;22.60;51.60;;;;;;5017721;28;20021;-62
2021/09/25 10:56:21;;;;;;;3.35;2.10;;;22.60;51.50;;;;;;5022773;28;20069;-65
2021/09/25 10:59:08;;;;;;;3.80;2.05;;;22.60;51.50;;;;;;5021912;28;20037;-62
2021/09/25 11:01:42;;;;;;;3.08;2.00;;;22.60;51.50;;;;;;5017829;28;20044;-64
2021/09/25 11:04:08;;;;;;;3.17;2.17;;;22.60;51.50;;;;;;5019003;28;20069;-61
2021/09/25 11:06:48;;;;;;;3.00;2.05;;;22.60;51.60;;;;;;5024250;28;20433;-64
2021/09/25 11:09:26;;;;;;;2.72;2.08;;;22.60;51.60;;;;;;5024922;28;20033;-61
2021/09/25 11:11:57;;;;;;;3.40;2.00;;;22.60;51.50;;;;;;5024711;28;20031;-58
2021/09/25 11:14:39;;;;;;;3.08;2.00;;;22.60;51.60;;;;;;5020105;28;20040;-56
2021/09/25 11:17:08;;;;;;;3.13;2.08;;;22.60;51.50;;;;;;5011626;28;20784;-60
2021/09/25 11:19:37;;;;;;;3.38;2.10;;;22.60;51.60;;;;;;5015604;28;20161;-63
2021/09/25 11:22:35;;;;;;;2.90;2.10;;;22.60;51.60;;;;;;5015437;28;20041;-62
2021/09/25 11:25:05;;;;;;;3.45;2.28;;;22.60;51.70;;;;;;5023939;28;20029;-57
2021/09/25 11:27:35;;;;;;;3.10;2.20;;;22.70;52.00;;;;;;5013632;28;20533;-63
2021/09/25 11:30:10;;;;;;;3.30;2.40;;;22.70;52.00;;;;;;5013457;28;20116;-61
2021/09/25 11:32:54;;;;;;;5.10;2.60;;;22.70;52.00;;;;;;5024522;28;20084;-59
2021/09/25 11:35:34;;;;;;;2.97;2.00;;;22.70;52.00;;;;;;5021331;28;20040;-63
2021/09/25 11:38:06;;;;;;;3.08;2.08;;;22.70;52.10;;;;;;5020257;28;20026;-61
2021/09/25 11:40:36;;;;;;;4.78;2.20;;;22.70;52.10;;;;;;5016992;28;20034;-60
2021/09/25 11:43:10;;;;;;;3.20;2.22;;;22.70;52.10;;;;;;5020251;28;20038;-61
2021/09/25 11:45:39;;;;;;;3.80;2.35;;;22.70;52.10;;;;;;5021809;28;20026;-59
2021/09/25 11:48:06;;;;;;;5.25;2.58;;;22.70;52.10;;;;;;5016281;28;20040;-63
2021/09/25 11:50:35;;;;;;;4.55;2.50;;;22.70;52.10;;;;;;5015716;28;20076;-61
2021/09/25 11:53:04;;;;;;;4.03;2.40;;;22.70;52.10;;;;;;5021629;28;20029;-62
2021/09/25 11:55:32;;;;;;;3.53;2.47;;;22.70;52.10;;;;;;5023715;28;20033;-58
2021/09/25 11:58:07;;;;;;;3.42;2.33;;;22.70;52.10;;;;;;5019569;28;20047;-62
2021/09/25 12:00:39;;;;;;;3.88;2.45;;;22.70;52.10;;;;;;5014438;28;20047;-57
2021/09/25 12:03:08;;;;;;;3.50;2.20;;;22.70;52.10;;;;;;5026844;28;20425;-61
2021/09/25 12:05:42;;;;;;;3.90;2.47;;;22.70;52.10;;;;;;5021567;28;20113;-64
2021/09/25 12:08:12;;;;;;;4.47;2.20;;;22.70;52.10;;;;;;5017487;28;20025;-61
2021/09/25 12:10:43;;;;;;;4.53;2.38;;;22.70;52.10;;;;;;5037287;28;20048;-59
2021/09/25 12:13:17;;;;;;;3.80;2.45;;;22.80;52.10;;;;;;5021239;28;20513;-65
2021/09/25 12:15:44;;;;;;;3.20;1.98;;;22.80;52.20;;;;;;5017160;28;20433;-61
2021/09/25 12:18:27;;;;;;;3.10;2.40;;;22.80;52.20;;;;;;5018088;28;20460;-59
2021/09/25 12:20:55;;;;;;;2.60;2.15;;;22.80;52.20;;;;;;5020064;28;20079;-59
2021/09/25 12:23:26;;;;;;;4.80;2.55;;;22.80;52.30;;;;;;5021915;28;20432;-60
2021/09/25 12:25:52;;;;;;;3.35;2.20;;;22.80;52.20;;;;;;5023440;28;20033;-55
2021/09/25 12:28:45;;;;;;;3.55;2.30;;;22.80;52.20;;;;;;5020883;28;20034;-59
2021/09/25 12:31:20;;;;;;;3.13;2.40;;;22.80;52.30;;;;;;5017725;28;20504;-61
2021/09/25 12:33:54;;;;;;;3.05;2.35;;;22.80;52.30;;;;;;5018874;28;20091;-61
2021/09/25 12:36:20;;;;;;;3.38;2.30;;;22.80;52.30;;;;;;5010749;28;20432;-56
2021/09/25 12:38:47;;;;;;;4.13;2.70;;;22.80;52.40;;;;;;5007879;28;20029;-59
2021/09/25 12:41:19;;;;;;;2.90;2.20;;;22.80;52.40;;;;;;5024138;28;20025;-60
2021/09/25 12:43:48;;;;;;;3.17;2.25;;;22.80;52.40;;;;;;5020524;28;20470;-61
2021/09/25 12:46:20;;;;;;;3.17;2.40;;;22.80;52.40;;;;;;5017521;28;20064;-62
2021/09/25 12:49:05;;;;;;;3.08;2.30;;;22.80;52.50;;;;;;5021305;28;20410;-62